Terminal Aerodrome Forecast
Issued by NWS

Home | Current Version | Previous Version | Text Only | Print | Product List | Glossary On
Versions: 1 2 3 4 5 6 7 8 9 10 11 12 13 14
000
FTUS45 KTFX 292328
TAFLWT
TAF
KLWT 292328Z 3000/3024 32006KT P6SM VCSH SCT050 OVC100
     FM300600 21006KT P6SM -SHRA SCT035 BKN070
     FM301100 25006KT P6SM VCSH BKN070
     FM301500 30018G28KT P6SM VCSH BKN070=

USA.gov is the U.S. government's official web portal to all federal, state and local government web resources and services.